createdAt,value
2019-04-04T00:00:59.722Z,18.71
2019-04-04T00:01:59.396Z,18.71
2019-04-04T00:02:59.436Z,18.71
2019-04-04T00:03:59.442Z,18.7
2019-04-04T00:04:59.469Z,18.69
2019-04-04T00:05:59.605Z,18.69
2019-04-04T00:06:59.556Z,18.69
2019-04-04T00:08:00.784Z,18.69
2019-04-04T00:09:02.822Z,18.68
2019-04-04T00:09:59.638Z,18.68
2019-04-04T00:10:59.645Z,18.68
2019-04-04T00:11:59.666Z,18.67
2019-04-04T00:12:59.667Z,18.67
2019-04-04T00:13:59.579Z,18.67
2019-04-04T00:14:59.712Z,18.67
2019-04-04T00:15:59.384Z,18.66
2019-04-04T00:16:59.423Z,18.66
2019-04-04T00:17:59.368Z,18.66
2019-04-04T00:18:59.386Z,18.66
2019-04-04T00:20:01.752Z,18.65
2019-04-04T00:21:03.385Z,18.66
2019-04-04T00:21:59.450Z,18.65
2019-04-04T00:22:59.438Z,18.66
2019-04-04T00:23:59.488Z,18.65
2019-04-04T00:24:59.495Z,18.64
2019-04-04T00:25:59.475Z,18.64
2019-04-04T00:26:59.505Z,18.64
2019-04-04T00:27:59.615Z,18.63
2019-04-04T00:29:01.842Z,18.63
2019-04-04T00:29:59.520Z,18.64
2019-04-04T00:30:59.589Z,18.63
2019-04-04T00:31:59.565Z,18.63
2019-04-04T00:32:59.386Z,18.62
2019-04-04T00:33:59.383Z,18.62
2019-04-04T00:35:00.654Z,18.61
2019-04-04T00:36:03.614Z,18.61
2019-04-04T00:36:59.408Z,18.61
2019-04-04T00:37:59.489Z,18.61
2019-04-04T00:38:59.459Z,18.61
2019-04-04T00:39:59.474Z,18.61
2019-04-04T00:40:59.493Z,18.61
2019-04-04T00:41:59.488Z,18.61
2019-04-04T00:42:59.552Z,18.6
2019-04-04T00:43:59.813Z,18.6
2019-04-04T00:44:59.562Z,18.6
2019-04-04T00:46:01.295Z,18.59
2019-04-04T00:47:02.386Z,18.59
2019-04-04T00:48:03.842Z,18.59
2019-04-04T00:48:59.590Z,18.59
2019-04-04T00:49:59.432Z,18.59
2019-04-04T00:50:59.336Z,18.58
2019-04-04T00:51:59.367Z,18.58
2019-04-04T00:52:59.331Z,18.57
2019-04-04T00:53:59.482Z,18.57
2019-04-04T00:54:59.417Z,18.58
2019-04-04T00:55:59.411Z,18.57
2019-04-04T00:56:59.455Z,18.57
2019-04-04T00:57:59.456Z,18.56
2019-04-04T00:58:59.548Z,18.56
2019-04-04T00:59:59.480Z,18.56
2019-04-04T01:00:59.501Z,18.56
2019-04-04T01:01:59.511Z,18.56
2019-04-04T01:02:59.507Z,18.56
2019-04-04T01:04:01.137Z,18.56
2019-04-04T01:05:02.512Z,18.55
2019-04-04T01:06:03.939Z,18.54
2019-04-04T01:06:59.582Z,18.54
2019-04-04T01:07:59.434Z,18.54
2019-04-04T01:08:59.410Z,18.54
2019-04-04T01:09:59.385Z,18.54
2019-04-04T01:10:59.466Z,18.54
2019-04-04T01:11:59.410Z,18.54
2019-04-04T01:12:59.433Z,18.54
2019-04-04T01:13:59.439Z,18.53
2019-04-04T01:15:00.884Z,18.53
2019-04-04T01:16:03.638Z,18.52
2019-04-04T01:16:59.526Z,18.53
2019-04-04T01:17:59.492Z,18.52
2019-04-04T01:18:59.533Z,18.52
2019-04-04T01:19:59.603Z,18.51
2019-04-04T01:20:59.337Z,18.51
2019-04-04T01:21:59.656Z,18.51
2019-04-04T01:22:59.584Z,18.51
2019-04-04T01:23:59.621Z,18.51
2019-04-04T01:25:01.841Z,18.51
2019-04-04T01:25:59.313Z,18.5
2019-04-04T01:26:59.434Z,18.5
2019-04-04T01:27:59.373Z,18.5
2019-04-04T01:28:59.443Z,18.5
2019-04-04T01:29:59.381Z,18.49
2019-04-04T01:30:59.501Z,18.49
2019-04-04T01:31:59.341Z,18.49
2019-04-04T01:32:59.406Z,18.49
2019-04-04T01:33:59.646Z,18.48
2019-04-04T01:34:59.805Z,18.48
2019-04-04T01:35:59.467Z,18.48
2019-04-04T01:36:59.503Z,18.48
2019-04-04T01:37:59.572Z,18.48
2019-04-04T01:39:00.945Z,18.48
2019-04-04T01:40:03.151Z,18.48
2019-04-04T01:40:59.632Z,18.48
2019-04-04T01:41:59.587Z,18.47
2019-04-04T01:42:59.390Z,18.47
2019-04-04T01:44:05.722Z,18.47
2019-04-04T01:44:59.437Z,18.47
2019-04-04T01:45:59.382Z,18.46
2019-04-04T01:46:59.798Z,18.46
2019-04-04T01:47:59.527Z,18.45
2019-04-04T01:48:59.698Z,18.46
2019-04-04T01:49:59.398Z,18.45
2019-04-04T01:50:59.366Z,18.45
2019-04-04T01:51:59.516Z,18.46
2019-04-04T01:53:00.205Z,18.45
2019-04-04T01:54:01.978Z,18.45
2019-04-04T01:55:04.394Z,18.45
2019-04-04T01:55:59.523Z,18.44
2019-04-04T01:56:59.555Z,18.44
2019-04-04T01:57:59.818Z,18.44
2019-04-04T01:58:59.559Z,18.43
2019-04-04T01:59:59.665Z,18.43
2019-04-04T02:00:59.313Z,18.43
2019-04-04T02:01:59.332Z,18.43
2019-04-04T02:02:59.317Z,18.42
2019-04-04T02:03:59.385Z,18.42
2019-04-04T02:04:59.332Z,18.42
2019-04-04T02:05:59.349Z,18.42
2019-04-04T02:06:59.945Z,18.41
2019-04-04T02:08:01.858Z,18.41
2019-04-04T02:09:03.731Z,18.41
2019-04-04T02:09:59.948Z,18.41
2019-04-04T02:10:59.833Z,18.41
2019-04-04T02:11:59.606Z,18.41
2019-04-04T02:12:59.614Z,18.41
2019-04-04T02:13:59.320Z,18.41
2019-04-04T02:14:59.492Z,18.4
2019-04-04T02:15:59.518Z,18.4
2019-04-04T02:16:59.493Z,18.41
2019-04-04T02:17:59.577Z,18.4
2019-04-04T02:18:59.656Z,18.4
2019-04-04T02:19:59.464Z,18.4
2019-04-04T02:20:59.595Z,18.4
2019-04-04T02:22:00.615Z,18.4
2019-04-04T02:23:02.148Z,18.39
2019-04-04T02:24:02.257Z,18.4
2019-04-04T02:25:04.047Z,18.4
2019-04-04T02:25:59.429Z,18.39
2019-04-04T02:26:59.432Z,18.39
2019-04-04T02:27:59.430Z,18.39
2019-04-04T02:28:59.412Z,18.39
2019-04-04T02:29:59.548Z,18.38
2019-04-04T02:30:59.501Z,18.38
2019-04-04T02:31:59.530Z,18.37
2019-04-04T02:33:01.058Z,18.37
2019-04-04T02:33:59.501Z,18.37
2019-04-04T02:34:59.487Z,18.37
2019-04-04T02:35:59.549Z,18.37
2019-04-04T02:36:59.694Z,18.37
2019-04-04T02:37:59.616Z,18.36
2019-04-04T02:39:01.019Z,18.36
2019-04-04T02:39:59.569Z,18.35
2019-04-04T02:40:59.346Z,18.36
2019-04-04T02:41:59.409Z,18.36
2019-04-04T02:42:59.467Z,18.36
2019-04-04T02:44:00.973Z,18.36
2019-04-04T02:44:59.402Z,18.35
2019-04-04T02:45:59.424Z,18.35
2019-04-04T02:46:59.435Z,18.35
2019-04-04T02:47:59.568Z,18.35
2019-04-04T02:48:59.487Z,18.35
2019-04-04T02:50:02.588Z,18.35
2019-04-04T02:50:59.579Z,18.35
2019-04-04T02:51:59.656Z,18.34
2019-04-04T02:52:59.507Z,18.35
2019-04-04T02:53:59.908Z,18.34
2019-04-04T02:54:59.710Z,18.34
2019-04-04T02:56:03.902Z,18.34
2019-04-04T02:56:59.392Z,18.34
2019-04-04T02:57:59.465Z,18.34
2019-04-04T02:58:59.388Z,18.33
2019-04-04T02:59:59.380Z,18.33
2019-04-04T03:01:00.894Z,18.33
2019-04-04T03:01:59.415Z,18.33
2019-04-04T03:02:59.392Z,18.32
2019-04-04T03:03:59.433Z,18.33
2019-04-04T03:04:59.514Z,18.32
2019-04-04T03:05:59.574Z,18.32
2019-04-04T03:06:59.498Z,18.32
2019-04-04T03:08:04.941Z,18.31
2019-04-04T03:08:59.499Z,18.31
2019-04-04T03:09:59.617Z,18.32
2019-04-04T03:10:59.527Z,18.31
2019-04-04T03:11:59.598Z,18.3
2019-04-04T03:12:59.787Z,18.3
2019-04-04T03:14:05.018Z,18.3
2019-04-04T03:14:59.452Z,18.29
2019-04-04T03:16:00.019Z,18.29
2019-04-04T03:16:59.355Z,18.29
2019-04-04T03:18:01.614Z,18.3
2019-04-04T03:18:59.355Z,18.29
2019-04-04T03:19:59.360Z,18.29
2019-04-04T03:20:59.381Z,18.29
2019-04-04T03:21:59.403Z,18.29
2019-04-04T03:23:01.885Z,18.29
2019-04-04T03:23:59.428Z,18.29
2019-04-04T03:24:59.437Z,18.29
2019-04-04T03:25:59.395Z,18.28
2019-04-04T03:26:59.619Z,18.29
2019-04-04T03:27:59.675Z,18.28
2019-04-04T03:29:11.084Z,18.28
2019-04-04T03:29:59.513Z,18.28
2019-04-04T03:31:04.587Z,18.28
2019-04-04T03:31:59.486Z,18.27
2019-04-04T03:32:59.376Z,18.27
2019-04-04T03:34:09.048Z,18.27
2019-04-04T03:34:59.405Z,18.27
2019-04-04T03:36:01.572Z,18.27
2019-04-04T03:36:59.672Z,18.27
2019-04-04T03:37:59.422Z,18.27
2019-04-04T03:38:59.443Z,18.27
2019-04-04T03:39:59.470Z,18.28
2019-04-04T03:40:59.618Z,18.28
2019-04-04T03:41:59.408Z,18.29
2019-04-04T03:42:59.546Z,18.29
2019-04-04T03:43:59.462Z,18.29
2019-04-04T03:44:59.712Z,18.29
2019-04-04T03:46:02.058Z,18.3
2019-04-04T03:46:59.624Z,18.31
2019-04-04T03:47:59.534Z,18.32
2019-04-04T03:48:59.303Z,18.32
2019-04-04T03:49:59.417Z,18.33
2019-04-04T03:51:05.525Z,18.35
2019-04-04T03:51:59.302Z,18.35
2019-04-04T03:52:59.400Z,18.36
2019-04-04T03:53:59.501Z,18.38
2019-04-04T03:54:59.546Z,18.38
2019-04-04T03:56:01.898Z,18.39
2019-04-04T03:56:59.331Z,18.4
2019-04-04T03:57:59.809Z,18.41
2019-04-04T03:59:01.139Z,18.42
2019-04-04T03:59:59.402Z,18.44
2019-04-04T04:00:59.638Z,18.46
2019-04-04T04:01:59.415Z,18.48
2019-04-04T04:02:59.620Z,18.5
2019-04-04T04:03:59.501Z,18.51
2019-04-04T04:05:02.568Z,18.53
2019-04-04T04:05:59.752Z,18.55
2019-04-04T04:06:59.572Z,18.57
2019-04-04T04:07:59.278Z,18.59
2019-04-04T04:08:59.357Z,18.6
2019-04-04T04:10:00.722Z,18.62
2019-04-04T04:10:59.342Z,18.64
2019-04-04T04:11:59.478Z,18.66
2019-04-04T04:12:59.334Z,18.67
2019-04-04T04:13:59.458Z,18.69
2019-04-04T04:14:59.405Z,18.7
2019-04-04T04:16:04.195Z,18.72
2019-04-04T04:16:59.420Z,18.74
2019-04-04T04:17:59.441Z,18.75
2019-04-04T04:18:59.474Z,18.77
2019-04-04T04:20:05.346Z,18.78
2019-04-04T04:20:59.642Z,18.79
2019-04-04T04:21:59.478Z,18.81
2019-04-04T04:22:59.482Z,18.82
2019-04-04T04:23:59.649Z,18.83
2019-04-04T04:25:04.134Z,18.84
2019-04-04T04:25:59.312Z,18.85
2019-04-04T04:26:59.318Z,18.87
2019-04-04T04:28:03.652Z,18.88
2019-04-04T04:28:59.365Z,18.89
2019-04-04T04:30:07.973Z,18.9
2019-04-04T04:30:59.301Z,18.9
2019-04-04T04:31:59.377Z,18.91
2019-04-04T04:32:59.399Z,18.92
2019-04-04T04:34:02.212Z,18.93
2019-04-04T04:34:59.535Z,18.95
2019-04-04T04:35:59.388Z,18.95
2019-04-04T04:36:59.450Z,18.96
2019-04-04T04:37:59.521Z,18.96
2019-04-04T04:39:00.508Z,18.97
2019-04-04T04:39:59.455Z,18.97
2019-04-04T04:40:59.474Z,18.98
2019-04-04T04:42:00.010Z,18.99
2019-04-04T04:43:01.374Z,18.99
2019-04-04T04:43:59.534Z,19
2019-04-04T04:44:59.263Z,19
2019-04-04T04:45:59.302Z,19
2019-04-04T04:46:59.334Z,19.01
2019-04-04T04:47:59.350Z,19.02
2019-04-04T04:49:04.634Z,19.02
2019-04-04T04:49:59.708Z,19.02
2019-04-04T04:50:59.505Z,19.02
2019-04-04T04:51:59.477Z,19.02
2019-04-04T04:52:59.421Z,19.03
2019-04-04T04:53:59.424Z,19.03
2019-04-04T04:54:59.494Z,19.03
2019-04-04T04:56:01.059Z,19.03
2019-04-04T04:57:05.414Z,19.03
2019-04-04T04:57:59.479Z,19.03
2019-04-04T04:58:59.459Z,19.03
2019-04-04T04:59:59.445Z,19.03
2019-04-04T05:00:59.757Z,19.03
2019-04-04T05:01:59.624Z,19.03
2019-04-04T05:02:59.524Z,19.03
2019-04-04T05:04:03.084Z,19.03
2019-04-04T05:05:00.249Z,19.03
2019-04-04T05:06:03.637Z,19.03
2019-04-04T05:06:59.300Z,19.03
2019-04-04T05:07:59.370Z,19.03
2019-04-04T05:08:59.345Z,19.03
2019-04-04T05:09:59.412Z,19.02
2019-04-04T05:10:59.341Z,19.02
2019-04-04T05:11:59.383Z,19.02
2019-04-04T05:12:59.478Z,19.02
2019-04-04T05:13:59.579Z,19.02
2019-04-04T05:15:02.460Z,19.02
2019-04-04T05:15:59.390Z,19.02
2019-04-04T05:16:59.442Z,19.02
2019-04-04T05:17:59.398Z,19.02
2019-04-04T05:18:59.616Z,19.01
2019-04-04T05:19:59.439Z,19.02
2019-04-04T05:21:02.835Z,19.01
2019-04-04T05:21:59.613Z,19.01
2019-04-04T05:22:59.301Z,19.01
2019-04-04T05:23:59.392Z,19.02
2019-04-04T05:25:09.390Z,19.01
2019-04-04T05:26:03.568Z,19.01
2019-04-04T05:26:59.343Z,19.01
2019-04-04T05:27:59.388Z,19.01
2019-04-04T05:28:59.381Z,19.01
2019-04-04T05:29:59.383Z,19.01
2019-04-04T05:30:59.428Z,19
2019-04-04T05:31:59.398Z,18.99
2019-04-04T05:32:59.468Z,19
2019-04-04T05:34:00.020Z,18.99
2019-04-04T05:35:02.340Z,18.99
2019-04-04T05:35:59.461Z,18.99
2019-04-04T05:36:59.503Z,18.99
2019-04-04T05:37:59.620Z,18.98
2019-04-04T05:38:59.554Z,18.98
2019-04-04T05:39:59.528Z,18.98
2019-04-04T05:40:59.357Z,18.98
2019-04-04T05:42:01.454Z,18.98
2019-04-04T05:42:59.298Z,18.98
2019-04-04T05:43:59.262Z,18.97
2019-04-04T05:44:59.261Z,18.97
2019-04-04T05:45:59.351Z,18.97
2019-04-04T05:47:00.293Z,18.97
2019-04-04T05:48:00.193Z,18.97
2019-04-04T05:49:08.732Z,18.97
2019-04-04T05:49:59.313Z,18.97
2019-04-04T05:50:59.368Z,18.97
2019-04-04T05:51:59.423Z,18.96
2019-04-04T05:52:59.421Z,18.96
2019-04-04T05:53:59.664Z,18.95
2019-04-04T05:54:59.526Z,18.95
2019-04-04T05:56:00.602Z,18.96
2019-04-04T05:56:59.482Z,18.95
2019-04-04T05:57:59.518Z,18.94
2019-04-04T05:58:59.238Z,18.94
2019-04-04T05:59:59.316Z,18.94
2019-04-04T06:01:02.932Z,18.93
2019-04-04T06:01:59.343Z,18.93
2019-04-04T06:02:59.326Z,18.93
2019-04-04T06:03:59.367Z,18.92
2019-04-04T06:04:59.364Z,18.92
2019-04-04T06:06:02.263Z,18.92
2019-04-04T06:06:59.376Z,18.91
2019-04-04T06:07:59.475Z,18.9
2019-04-04T06:08:59.598Z,18.9
2019-04-04T06:09:59.388Z,18.9
2019-04-04T06:10:59.419Z,18.9
2019-04-04T06:11:59.490Z,18.9
2019-04-04T06:12:59.430Z,18.9
2019-04-04T06:13:59.944Z,18.9
2019-04-04T06:15:01.367Z,18.89
2019-04-04T06:15:59.502Z,18.9
2019-04-04T06:16:59.188Z,18.89
2019-04-04T06:17:59.217Z,18.89
2019-04-04T06:18:59.246Z,18.88
2019-04-04T06:19:59.221Z,18.88
2019-04-04T06:20:59.252Z,18.87
2019-04-04T06:21:59.293Z,18.87
2019-04-04T06:22:59.417Z,18.86
2019-04-04T06:23:59.277Z,18.86
2019-04-04T06:25:00.197Z,18.86
2019-04-04T06:25:59.380Z,18.86
2019-04-04T06:26:59.324Z,18.85
2019-04-04T06:27:59.476Z,18.85
2019-04-04T06:28:59.671Z,18.85
2019-04-04T06:29:59.460Z,18.85
2019-04-04T06:31:01.096Z,18.85
2019-04-04T06:32:01.175Z,18.85
2019-04-04T06:32:59.497Z,18.85
2019-04-04T06:33:59.498Z,18.84
2019-04-04T06:34:59.256Z,18.84
2019-04-04T06:35:59.263Z,18.84
2019-04-04T06:36:59.281Z,18.85
2019-04-04T06:37:59.266Z,18.85
2019-04-04T06:38:59.352Z,18.85
2019-04-04T06:39:59.813Z,18.85
2019-04-04T06:41:01.751Z,18.86
2019-04-04T06:42:03.978Z,18.86
2019-04-04T06:42:59.345Z,18.86
2019-04-04T06:43:59.338Z,18.87
2019-04-04T06:44:59.420Z,18.87
2019-04-04T06:45:59.439Z,18.88
2019-04-04T06:47:02.420Z,18.88
2019-04-04T06:47:59.394Z,18.89
2019-04-04T06:48:59.600Z,18.89
2019-04-04T06:49:59.494Z,18.9
2019-04-04T06:50:59.456Z,18.9
2019-04-04T06:51:59.451Z,18.9
2019-04-04T06:53:00.212Z,18.9
2019-04-04T06:54:00.058Z,18.91
2019-04-04T06:54:59.247Z,18.91
2019-04-04T06:56:01.250Z,18.91
2019-04-04T06:57:05.103Z,18.92
2019-04-04T06:57:59.351Z,18.92
2019-04-04T06:58:59.263Z,18.92
2019-04-04T06:59:59.339Z,18.92
2019-04-04T07:00:59.327Z,18.92
2019-04-04T07:01:59.315Z,18.92
2019-04-04T07:02:59.326Z,18.93
2019-04-04T07:04:00.485Z,18.93
2019-04-04T07:04:59.329Z,18.94
2019-04-04T07:05:59.434Z,18.94
2019-04-04T07:06:59.398Z,18.94
2019-04-04T07:07:59.384Z,18.94
2019-04-04T07:08:59.403Z,18.95
2019-04-04T07:09:59.438Z,18.95
2019-04-04T07:11:21.941Z,18.96
2019-04-04T07:11:59.253Z,18.96
2019-04-04T07:14:00.054Z,18.96
2019-04-04T07:14:59.286Z,18.96
2019-04-04T07:16:08.531Z,18.97
2019-04-04T07:17:00.378Z,18.97
2019-04-04T07:17:59.339Z,18.97
2019-04-04T07:18:59.390Z,18.97
2019-04-04T07:19:59.337Z,18.97
2019-04-04T07:20:59.445Z,18.98
2019-04-04T07:21:59.439Z,18.97
2019-04-04T07:22:59.383Z,18.98
2019-04-04T07:24:00.264Z,18.98
2019-04-04T07:25:07.037Z,18.98
2019-04-04T07:25:59.452Z,18.98
2019-04-04T07:26:59.453Z,18.98
2019-04-04T07:27:59.567Z,18.98
2019-04-04T07:28:59.222Z,18.99
2019-04-04T07:29:59.207Z,18.98
2019-04-04T07:31:02.712Z,18.99
2019-04-04T07:31:59.294Z,18.99
2019-04-04T07:32:59.244Z,18.98
2019-04-04T07:33:59.428Z,18.99
2019-04-04T07:34:59.424Z,18.98
2019-04-04T07:35:59.633Z,18.98
2019-04-04T07:36:59.343Z,18.98
2019-04-04T07:37:59.409Z,18.98
2019-04-04T07:39:01.241Z,18.99
2019-04-04T07:40:04.766Z,18.98
2019-04-04T07:40:59.354Z,18.98
2019-04-04T07:41:59.378Z,18.99
2019-04-04T07:42:59.391Z,18.98
2019-04-04T07:43:59.375Z,18.98
2019-04-04T07:44:59.275Z,18.98
2019-04-04T07:46:17.396Z,18.97
2019-04-04T07:46:59.317Z,18.98
2019-04-04T07:47:59.318Z,18.98
2019-04-04T07:48:59.360Z,18.97
2019-04-04T07:49:59.329Z,18.98
2019-04-04T07:50:59.527Z,18.97
2019-04-04T07:52:02.501Z,18.98
2019-04-04T07:52:59.301Z,18.97
2019-04-04T07:53:59.361Z,18.97
2019-04-04T07:54:59.451Z,18.97
2019-04-04T07:55:59.705Z,18.97
2019-04-04T07:56:59.486Z,18.97
2019-04-04T07:57:59.372Z,18.97
2019-04-04T07:58:59.435Z,18.97
2019-04-04T07:59:59.406Z,18.97
2019-04-04T08:00:59.421Z,18.97
2019-04-04T08:01:59.504Z,18.97
2019-04-04T08:02:59.465Z,18.96
2019-04-04T08:03:59.226Z,18.96
2019-04-04T08:04:59.163Z,18.97
2019-04-04T08:05:59.200Z,18.97
2019-04-04T08:06:59.419Z,18.96
2019-04-04T08:07:59.222Z,18.96
2019-04-04T08:08:59.273Z,18.95
2019-04-04T08:09:59.223Z,18.94
2019-04-04T08:10:59.383Z,18.95
2019-04-04T08:11:59.433Z,18.94
2019-04-04T08:12:59.306Z,18.94
2019-04-04T08:13:59.448Z,18.94
2019-04-04T08:14:59.306Z,18.94
2019-04-04T08:15:59.344Z,18.93
2019-04-04T08:16:59.357Z,18.93
2019-04-04T08:17:59.481Z,18.93
2019-04-04T08:18:59.392Z,18.93
2019-04-04T08:20:00.357Z,18.92
2019-04-04T08:20:59.519Z,18.92
2019-04-04T08:21:59.589Z,18.92
2019-04-04T08:22:59.197Z,18.92
2019-04-04T08:23:59.202Z,18.92
2019-04-04T08:24:59.274Z,18.92
2019-04-04T08:25:59.307Z,18.91
2019-04-04T08:26:59.303Z,18.91
2019-04-04T08:27:59.294Z,18.91
2019-04-04T08:28:59.255Z,18.9
2019-04-04T08:29:59.393Z,18.9
2019-04-04T08:30:59.404Z,18.9
2019-04-04T08:31:59.311Z,18.9
2019-04-04T08:32:59.348Z,18.89
2019-04-04T08:33:59.461Z,18.9
2019-04-04T08:34:59.346Z,18.89
2019-04-04T08:36:07.058Z,18.89
2019-04-04T08:36:59.522Z,18.88
2019-04-04T08:37:59.422Z,18.88
2019-04-04T08:38:59.160Z,18.88
2019-04-04T08:39:59.351Z,18.88
2019-04-04T08:40:59.393Z,18.88
2019-04-04T08:41:59.302Z,18.87
2019-04-04T08:42:59.224Z,18.87
2019-04-04T08:43:59.379Z,18.87
2019-04-04T08:44:59.258Z,18.87
2019-04-04T08:45:59.274Z,18.87
2019-04-04T08:46:59.284Z,18.86
2019-04-04T08:47:59.278Z,18.87
2019-04-04T08:48:59.178Z,18.86
2019-04-04T08:49:59.312Z,18.86
2019-04-04T08:50:59.362Z,18.86
2019-04-04T08:51:59.326Z,18.85
2019-04-04T08:52:59.385Z,18.85
2019-04-04T08:53:59.375Z,18.86
2019-04-04T08:54:59.391Z,18.86
2019-04-04T08:55:59.213Z,18.85
2019-04-04T08:56:59.198Z,18.85
2019-04-04T08:57:59.221Z,18.85
2019-04-04T08:58:59.287Z,18.84
2019-04-04T08:59:59.301Z,18.84
2019-04-04T09:00:59.264Z,18.84
2019-04-04T09:01:59.596Z,18.84
2019-04-04T09:02:59.398Z,18.84
2019-04-04T09:03:59.300Z,18.84
2019-04-04T09:05:12.979Z,18.84
2019-04-04T09:05:59.330Z,18.84
2019-04-04T09:06:59.397Z,18.84
2019-04-04T09:07:59.409Z,18.84
2019-04-04T09:08:59.330Z,18.84
2019-04-04T09:09:59.411Z,18.84
2019-04-04T09:10:59.482Z,18.83
2019-04-04T09:11:59.347Z,18.83
2019-04-04T09:12:59.428Z,18.82
2019-04-04T09:13:59.132Z,18.83
2019-04-04T09:14:59.148Z,18.83
2019-04-04T09:15:59.228Z,18.83
2019-04-04T09:16:59.181Z,18.82
2019-04-04T09:17:59.197Z,18.82
2019-04-04T09:18:59.218Z,18.83
2019-04-04T09:19:59.203Z,18.83
2019-04-04T09:20:59.265Z,18.83
2019-04-04T09:21:59.423Z,18.83
2019-04-04T09:22:59.346Z,18.83
2019-04-04T09:24:01.107Z,18.82
2019-04-04T09:25:01.849Z,18.82
2019-04-04T09:26:06.686Z,18.82
2019-04-04T09:26:59.341Z,18.82
2019-04-04T09:27:59.331Z,18.82
2019-04-04T09:28:59.334Z,18.82
2019-04-04T09:29:59.357Z,18.82
2019-04-04T09:30:59.155Z,18.81
2019-04-04T09:31:59.185Z,18.81
2019-04-04T09:32:59.282Z,18.82
2019-04-04T09:33:59.225Z,18.82
2019-04-04T09:34:59.238Z,18.81
2019-04-04T09:35:59.199Z,18.81
2019-04-04T09:36:59.256Z,18.81
2019-04-04T09:37:59.250Z,18.82
2019-04-04T09:38:59.342Z,18.82
2019-04-04T09:39:59.347Z,18.83
2019-04-04T09:40:59.362Z,18.83
2019-04-04T09:41:59.383Z,18.83
2019-04-04T09:42:59.356Z,18.83
2019-04-04T09:43:59.312Z,18.83
2019-04-04T09:44:59.611Z,18.83
2019-04-04T09:45:59.468Z,18.82
2019-04-04T09:47:06.080Z,18.82
2019-04-04T09:47:59.362Z,18.83
2019-04-04T09:48:59.403Z,18.82
2019-04-04T09:49:59.143Z,18.82
2019-04-04T09:50:59.297Z,18.82
2019-04-04T09:51:59.126Z,18.82
2019-04-04T09:52:59.199Z,18.82
2019-04-04T09:53:59.163Z,18.83
2019-04-04T09:54:59.287Z,18.83
2019-04-04T09:55:59.203Z,18.82
2019-04-04T09:56:59.227Z,18.83
2019-04-04T09:57:59.253Z,18.82
2019-04-04T09:58:59.228Z,18.82
2019-04-04T09:59:59.317Z,18.82
2019-04-04T10:00:59.330Z,18.82
2019-04-04T10:01:59.464Z,18.82
2019-04-04T10:02:59.277Z,18.82
2019-04-04T10:03:59.312Z,18.82
2019-04-04T10:04:59.326Z,18.82
2019-04-04T10:05:59.315Z,18.83
2019-04-04T10:06:59.405Z,18.82
2019-04-04T10:07:59.565Z,18.83
2019-04-04T10:08:59.167Z,18.83
2019-04-04T10:09:59.189Z,18.83
2019-04-04T10:10:59.203Z,18.83
2019-04-04T10:11:59.204Z,18.82
2019-04-04T10:12:59.245Z,18.83
2019-04-04T10:13:59.330Z,18.82
2019-04-04T10:14:59.265Z,18.82
2019-04-04T10:15:59.325Z,18.82
2019-04-04T10:16:59.269Z,18.83
2019-04-04T10:17:59.297Z,18.83
2019-04-04T10:18:59.308Z,18.83
2019-04-04T10:19:59.286Z,18.83
2019-04-04T10:21:13.006Z,18.83
2019-04-04T10:21:59.361Z,18.82
2019-04-04T10:22:59.340Z,18.83
2019-04-04T10:23:59.772Z,18.83
2019-04-04T10:24:59.442Z,18.83
2019-04-04T10:25:59.571Z,18.83
2019-04-04T10:26:59.755Z,18.84
2019-04-04T10:27:59.126Z,18.84
2019-04-04T10:28:59.150Z,18.84
2019-04-04T10:29:59.357Z,18.84
2019-04-04T10:30:59.335Z,18.84
2019-04-04T10:31:59.177Z,18.84
2019-04-04T10:32:59.297Z,18.84
2019-04-04T10:33:59.131Z,18.84
2019-04-04T10:34:59.220Z,18.84
2019-04-04T10:35:59.253Z,18.84
2019-04-04T10:36:59.283Z,18.84
2019-04-04T10:37:59.262Z,18.84
2019-04-04T10:38:59.297Z,18.84
2019-04-04T10:39:59.325Z,18.83
2019-04-04T10:40:59.284Z,18.84
2019-04-04T10:41:59.290Z,18.84
2019-04-04T10:42:59.347Z,18.84
2019-04-04T10:43:59.436Z,18.84
2019-04-04T10:44:59.185Z,18.84
2019-04-04T10:45:59.184Z,18.84
2019-04-04T10:46:59.177Z,18.84
2019-04-04T10:47:59.174Z,18.84
2019-04-04T10:48:59.271Z,18.84
2019-04-04T10:49:59.230Z,18.84
2019-04-04T10:50:59.222Z,18.84
2019-04-04T10:51:59.322Z,18.84
2019-04-04T10:52:59.247Z,18.84
2019-04-04T10:53:59.271Z,18.84
2019-04-04T10:55:02.332Z,18.84
2019-04-04T10:55:59.420Z,18.84
2019-04-04T10:56:59.369Z,18.84
2019-04-04T10:57:59.312Z,18.84
2019-04-04T10:58:59.336Z,18.84
2019-04-04T10:59:59.455Z,18.84
2019-04-04T11:00:59.486Z,18.84
2019-04-04T11:02:01.234Z,18.84
2019-04-04T11:02:59.090Z,18.84
2019-04-04T11:03:59.293Z,18.84
2019-04-04T11:04:59.127Z,18.84
2019-04-04T11:05:59.157Z,18.84
2019-04-04T11:06:59.190Z,18.84
2019-04-04T11:07:59.349Z,18.84
2019-04-04T11:08:59.174Z,18.84
2019-04-04T11:09:59.330Z,18.84
2019-04-04T11:10:59.379Z,18.84
2019-04-04T11:11:59.214Z,18.84
2019-04-04T11:12:59.338Z,18.84
2019-04-04T11:13:59.265Z,18.84
2019-04-04T11:14:59.249Z,18.84
2019-04-04T11:15:59.281Z,18.84
2019-04-04T11:16:59.278Z,18.84
2019-04-04T11:17:59.360Z,18.84
2019-04-04T11:18:59.350Z,18.84
2019-04-04T11:19:59.319Z,18.84
2019-04-04T11:20:59.152Z,18.85
2019-04-04T11:21:59.228Z,18.84
2019-04-04T11:22:59.174Z,18.84
2019-04-04T11:23:59.528Z,18.85
2019-04-04T11:24:59.182Z,18.84
2019-04-04T11:25:59.200Z,18.84
2019-04-04T11:26:59.336Z,18.84
2019-04-04T11:27:59.223Z,18.84
2019-04-04T11:28:59.281Z,18.85
2019-04-04T11:29:59.238Z,18.85
2019-04-04T11:30:59.261Z,18.84
2019-04-04T11:31:59.302Z,18.84
2019-04-04T11:32:59.435Z,18.84
2019-04-04T11:33:59.367Z,18.84
2019-04-04T11:34:59.369Z,18.84
2019-04-04T11:35:59.334Z,18.84
2019-04-04T11:36:59.344Z,18.84
2019-04-04T11:37:59.344Z,18.84
2019-04-04T11:38:59.108Z,18.84
2019-04-04T11:39:59.153Z,18.84
2019-04-04T11:40:59.284Z,18.84
2019-04-04T11:41:59.249Z,18.84
2019-04-04T11:42:59.160Z,18.84
2019-04-04T11:43:59.240Z,18.84
2019-04-04T11:44:59.150Z,18.84
2019-04-04T11:45:59.184Z,18.84
2019-04-04T11:46:59.225Z,18.84
2019-04-04T11:47:59.205Z,18.85
2019-04-04T11:48:59.327Z,18.84
2019-04-04T11:49:59.210Z,18.84
2019-04-04T11:50:59.260Z,18.84
2019-04-04T11:51:59.432Z,18.84
2019-04-04T11:52:59.242Z,18.84
2019-04-04T11:53:59.308Z,18.84
2019-04-04T11:54:59.388Z,18.84
2019-04-04T11:55:59.350Z,18.85
2019-04-04T11:56:59.508Z,18.85
2019-04-04T11:57:59.150Z,18.84
2019-04-04T11:58:59.134Z,18.85
2019-04-04T11:59:59.164Z,18.85
2019-04-04T12:00:59.187Z,18.85
2019-04-04T12:01:59.252Z,18.84
2019-04-04T12:02:59.168Z,18.85
2019-04-04T12:03:59.209Z,18.85
2019-04-04T12:04:59.259Z,18.85
2019-04-04T12:05:59.249Z,18.85
2019-04-04T12:06:59.285Z,18.85
2019-04-04T12:07:59.282Z,18.84
2019-04-04T12:08:59.347Z,18.84
2019-04-04T12:10:08.630Z,18.84
2019-04-04T12:10:59.380Z,18.84
2019-04-04T12:11:59.422Z,18.84
2019-04-04T12:12:59.531Z,18.85
2019-04-04T12:13:59.488Z,18.84
2019-04-04T12:14:59.085Z,18.84
2019-04-04T12:15:59.168Z,18.84
2019-04-04T12:16:59.096Z,18.84
2019-04-04T12:18:00.129Z,18.84
2019-04-04T12:18:59.149Z,18.84
2019-04-04T12:19:59.208Z,18.84
2019-04-04T12:20:59.180Z,18.84
2019-04-04T12:21:59.203Z,18.84
2019-04-04T12:22:59.206Z,18.85
2019-04-04T12:23:59.216Z,18.85
2019-04-04T12:24:59.264Z,18.85
2019-04-04T12:25:59.223Z,18.85
2019-04-04T12:26:59.240Z,18.85
2019-04-04T12:27:59.286Z,18.85
2019-04-04T12:28:59.396Z,18.86
2019-04-04T12:29:59.248Z,18.86
2019-04-04T12:30:59.383Z,18.84
2019-04-04T12:31:59.442Z,18.85
2019-04-04T12:32:59.334Z,18.85
2019-04-04T12:34:02.559Z,18.85
2019-04-04T12:34:59.137Z,18.85
2019-04-04T12:35:59.133Z,18.84
2019-04-04T12:36:59.173Z,18.85
2019-04-04T12:37:59.190Z,18.85
2019-04-04T12:38:59.161Z,18.85
2019-04-04T12:39:59.355Z,18.84
2019-04-04T12:40:59.181Z,18.84
2019-04-04T12:41:59.208Z,18.85
2019-04-04T12:42:59.260Z,18.84
2019-04-04T12:43:59.246Z,18.84
2019-04-04T12:44:59.242Z,18.84
2019-04-04T12:45:59.295Z,18.84
2019-04-04T12:46:59.280Z,18.84
2019-04-04T12:47:59.296Z,18.84
2019-04-04T12:48:59.330Z,18.84
2019-04-04T12:49:59.407Z,18.84
2019-04-04T12:50:59.311Z,18.84
2019-04-04T12:51:59.182Z,18.84
2019-04-04T12:52:59.099Z,18.85
2019-04-04T12:53:59.210Z,18.85
2019-04-04T12:54:59.324Z,18.84
2019-04-04T12:55:59.169Z,18.84